Time;durP1;ratioP1;P1;durP2;ratioP2;P2;SDS_P1;SDS_P2;PMS_P1;PMS_P2;Temp;Humidity;BMP_temperature;BMP_pressure;BME280_temperature;BME280_humidity;BME280_pressure;Samples;Min_cycle;Max_cycle;Signal;HPM_P1;HPM_P2
2021/05/18 00:00:56;;;;;;;1.55;0.40;;;;;;;13.49;65.60;98859.03;4387460;32;33565;-83
2021/05/18 00:03:24;;;;;;;1.77;0.40;;;;;;;13.42;66.60;98861.25;4385930;32;33261;-84
2021/05/18 00:05:55;;;;;;;1.95;1.25;;;;;;;13.83;64.09;98866.25;4399839;32;34551;-84
2021/05/18 00:08:25;;;;;;;2.05;0.32;;;;;;;13.67;64.99;98875.41;4387289;32;33682;-84
2021/05/18 00:13:47;;;;;;;0.45;0.30;;;;;;;13.81;63.80;98862.00;4384743;32;33472;-83
2021/05/18 00:16:16;;;;;;;0.90;0.30;;;;;;;13.72;63.92;98873.28;4387461;32;33381;-83
2021/05/18 00:18:44;;;;;;;0.70;0.20;;;;;;;13.63;63.38;98868.66;4389924;32;33506;-83
2021/05/18 00:21:12;;;;;;;2.92;0.30;;;;;;;13.42;65.12;98866.53;4380566;32;34461;-83
2021/05/18 00:23:40;;;;;;;0.43;0.20;;;;;;;13.61;64.65;98851.97;4382209;32;34015;-83
2021/05/18 00:26:09;;;;;;;0.85;0.30;;;;;;;13.54;63.21;98871.00;4385315;32;34245;-83
2021/05/18 00:28:37;;;;;;;2.10;0.30;;;;;;;13.52;63.43;98882.66;4387088;32;33792;-83
2021/05/18 00:31:05;;;;;;;1.42;0.37;;;;;;;13.83;62.06;98871.56;4387342;32;33493;-83
2021/05/18 00:33:33;;;;;;;2.78;0.40;;;;;;;13.76;62.19;98872.09;4393201;32;33194;-83
2021/05/18 00:36:04;;;;;;;1.00;0.52;;;;;;;13.57;62.68;98876.06;4381605;32;35915;-83
2021/05/18 00:38:32;;;;;;;0.35;0.20;;;;;;;13.75;62.42;98873.06;4378905;32;34563;-83
2021/05/18 00:41:04;;;;;;;0.40;0.20;;;;;;;13.44;62.92;98869.94;4391168;32;33203;-83
2021/05/18 00:43:33;;;;;;;1.65;0.20;;;;;;;13.60;62.59;98884.78;4384721;32;33131;-82
2021/05/18 00:46:01;;;;;;;0.15;0.10;;;;;;;13.94;61.03;98886.72;4383959;32;33745;-83
2021/05/18 00:48:29;;;;;;;0.37;0.20;;;;;;;14.00;61.11;98891.56;4396257;32;33419;-83
2021/05/18 00:50:59;;;;;;;1.85;0.20;;;;;;;13.84;61.47;98899.78;4389206;32;33737;-83
2021/05/18 00:53:28;;;;;;;0.10;0.10;;;;;;;13.87;60.59;98898.75;4401572;32;34942;-83
2021/05/18 00:56:02;;;;;;;3.62;0.98;;;;;;;13.87;60.73;98893.44;4389163;32;33362;-83
2021/05/18 00:58:38;;;;;;;4.90;0.20;;;;;;;13.73;61.39;98901.53;4386746;32;34304;-84
2021/05/18 01:01:18;;;;;;;1.60;0.30;;;;;;;13.88;60.70;98911.03;4383734;32;33763;-84
2021/05/18 01:03:51;;;;;;;0.40;0.10;;;;;;;13.71;61.12;98914.88;4384853;32;34049;-84
2021/05/18 01:08:59;;;;;;;0.35;0.20;;;;;;;13.86;60.74;98907.62;4389223;32;35632;-84
2021/05/18 01:11:30;;;;;;;2.72;0.20;;;;;;;13.97;59.95;98912.19;4367871;32;34618;-84
2021/05/18 01:14:04;;;;;;;0.60;0.20;;;;;;;13.58;61.42;98920.22;4379226;32;35430;-84
2021/05/18 01:16:34;;;;;;;2.33;0.20;;;;;;;13.62;61.49;98922.62;4401241;32;33621;-84
2021/05/18 01:19:04;;;;;;;0.37;0.20;;;;;;;14.15;59.20;98916.19;4393791;32;35170;-84
2021/05/18 01:21:32;;;;;;;1.12;0.50;;;;;;;13.72;61.03;98926.34;4381958;32;34908;-84
2021/05/18 01:24:01;;;;;;;1.10;0.20;;;;;;;13.42;61.72;98932.84;4401262;32;32893;-84
2021/05/18 01:26:31;;;;;;;3.17;0.30;;;;;;;13.61;60.31;98934.22;4388980;32;33633;-84
2021/05/18 01:29:04;;;;;;;0.25;0.13;;;;;;;13.26;61.26;98934.84;4388470;32;36078;-84
2021/05/18 01:31:34;;;;;;;0.55;0.40;;;;;;;13.63;60.10;98929.66;4389091;32;33695;-84
2021/05/18 01:34:03;;;;;;;0.75;0.43;;;;;;;13.70;59.80;98928.25;4389155;32;35025;-83
2021/05/18 01:36:35;;;;;;;2.55;0.20;;;;;;;13.56;60.43;98930.06;4375963;32;35248;-83
2021/05/18 01:44:24;;;;;;;2.10;0.30;;;;;;;13.83;60.23;98929.09;4387360;32;32818;-83
2021/05/18 01:46:53;;;;;;;0.88;0.40;;;;;;;13.84;59.94;98941.41;4388482;32;32487;-84
2021/05/18 01:49:22;;;;;;;0.37;0.10;;;;;;;14.00;59.27;98935.84;4389114;32;34746;-83
2021/05/18 01:51:55;;;;;;;0.30;0.20;;;;;;;13.63;61.37;98942.94;4388632;32;34461;-83
2021/05/18 01:54:30;;;;;;;;;;;;;;;13.92;59.76;98944.38;4381011;32;34052;-83
2021/05/18 01:59:30;;;;;;;0.37;0.10;;;;;;;13.98;59.23;98953.69;4384197;32;33365;-83
2021/05/18 02:02:03;;;;;;;1.42;0.37;;;;;;;13.39;61.08;98956.06;4391704;32;33879;-83
2021/05/18 02:04:44;;;;;;;4.40;0.52;;;;;;;13.50;61.50;98951.72;4378779;32;34237;-83
2021/05/18 02:07:18;;;;;;;20.62;0.65;;;;;;;13.63;60.66;98953.53;4383628;32;34069;-83
2021/05/18 02:09:47;;;;;;;1.65;0.30;;;;;;;13.50;61.28;98946.41;4386423;32;36616;-84
2021/05/18 02:12:16;;;;;;;0.93;0.35;;;;;;;13.32;62.25;98960.94;4385474;32;33693;-83
2021/05/18 02:14:47;;;;;;;0.20;0.20;;;;;;;13.53;61.14;98962.13;4376049;32;33084;-83
2021/05/18 02:25:10;;;;;;;0.30;0.17;;;;;;;13.54;61.76;98971.78;4387015;32;32936;-84
2021/05/18 02:27:40;;;;;;;1.15;0.20;;;;;;;13.71;60.90;98972.41;4396167;32;33662;-83
2021/05/18 02:30:09;;;;;;;4.50;0.20;;;;;;;13.76;60.34;98967.62;4370135;32;34837;-84
2021/05/18 02:32:38;;;;;;;2.28;0.35;;;;;;;13.80;60.38;98971.75;4394880;32;33573;-85
2021/05/18 02:35:10;;;;;;;0.30;0.30;;;;;;;13.64;61.00;98972.00;4398030;32;32794;-84
2021/05/18 02:37:38;;;;;;;0.90;0.30;;;;;;;13.44;61.78;98969.88;4381940;32;33301;-83
2021/05/18 02:40:20;;;;;;;1.33;0.20;;;;;;;13.36;61.59;98970.38;4386672;32;33574;-84
2021/05/18 02:42:50;;;;;;;5.00;0.70;;;;;;;13.69;60.64;98979.63;4380764;32;35388;-83
2021/05/18 02:45:32;;;;;;;1.42;0.20;;;;;;;13.56;61.81;98975.16;4385496;32;33156;-84
2021/05/18 02:50:50;;;;;;;2.08;0.30;;;;;;;13.48;61.53;98985.47;4382652;32;33708;-84
2021/05/18 02:53:18;;;;;;;0.52;0.30;;;;;;;13.59;61.45;98982.06;4388338;32;34387;-84
2021/05/18 02:58:14;;;;;;;0.28;0.20;;;;;;;13.33;61.95;98984.69;4387545;32;33304;-84
2021/05/18 03:00:45;;;;;;;0.57;0.20;;;;;;;13.51;61.31;98997.66;4388384;32;33510;-84
2021/05/18 03:03:13;;;;;;;1.20;0.30;;;;;;;13.34;62.03;99001.47;4379454;32;32971;-85
2021/05/18 03:05:41;;;;;;;0.68;0.57;;;;;;;13.28;61.94;98994.75;4388434;32;33378;-85
2021/05/18 03:08:11;;;;;;;0.20;0.20;;;;;;;13.36;62.10;98994.25;4375911;32;33489;-85
2021/05/18 03:10:39;;;;;;;0.35;0.35;;;;;;;13.31;62.20;98999.88;4387799;32;34534;-85
2021/05/18 03:13:07;;;;;;;2.15;0.37;;;;;;;13.00;63.08;99008.97;4388252;32;33674;-85
2021/05/18 03:15:35;;;;;;;0.77;0.40;;;;;;;13.46;62.08;99007.72;4388291;32;33723;-85
2021/05/18 03:18:03;;;;;;;2.42;0.20;;;;;;;13.38;62.29;99010.03;4387743;32;34006;-85
2021/05/18 03:20:32;;;;;;;2.60;0.30;;;;;;;13.27;62.34;99021.38;4387959;32;33822;-85
2021/05/18 03:23:00;;;;;;;1.55;0.20;;;;;;;13.16;62.64;99014.12;4385465;32;33799;-85
2021/05/18 03:25:28;;;;;;;0.28;0.20;;;;;;;13.41;61.74;99028.41;4388245;32;33806;-84
2021/05/18 03:27:58;;;;;;;0.77;0.10;;;;;;;13.71;60.94;99020.16;4387814;32;34116;-85
2021/05/18 03:35:46;;;;;;;1.77;0.82;;;;;;;13.34;62.41;99038.59;4381308;32;34487;-85
2021/05/18 03:38:27;;;;;;;0.52;0.20;;;;;;;13.21;62.46;99042.97;4394533;32;32996;-85
2021/05/18 03:40:59;;;;;;;0.15;0.15;;;;;;;13.38;62.00;99039.22;4387834;32;33851;-85
2021/05/18 04:10:08;;;;;;;2.25;0.30;;;;;;;13.48;60.96;99050.91;4373565;32;33417;-83
2021/05/18 04:18:59;;;;;;;0.20;0.20;;;;;;;13.43;61.05;99069.78;4375370;32;33004;-83
2021/05/18 05:04:06;;;;;;;1.58;0.30;;;;;;;14.32;58.94;99088.41;4385525;32;34794;-84
2021/05/18 05:06:44;;;;;;;1.85;0.30;;;;;;;14.49;57.98;99083.75;4384600;32;34737;-84
2021/05/18 05:09:26;;;;;;;0.35;0.13;;;;;;;14.70;58.23;99084.00;4383818;32;34426;-84
2021/05/18 05:14:43;;;;;;;0.57;0.25;;;;;;;14.78;58.22;99089.62;4384163;32;33370;-84
2021/05/18 05:17:11;;;;;;;0.40;0.20;;;;;;;15.14;56.75;99090.53;4372568;32;36043;-84
2021/05/18 05:19:43;;;;;;;1.45;0.30;;;;;;;15.25;55.43;99090.62;4384750;32;33523;-84
2021/05/18 05:22:13;;;;;;;2.75;0.20;;;;;;;15.13;55.95;99086.19;4382887;32;31251;-85
2021/05/18 05:24:44;;;;;;;1.73;0.20;;;;;;;15.15;56.75;99092.28;4371581;32;31866;-84
2021/05/18 05:27:12;;;;;;;0.20;0.10;;;;;;;15.60;54.74;99085.31;4385802;32;33615;-86
2021/05/18 05:29:59;;;;;;;0.52;0.17;;;;;;;15.24;56.64;99096.88;4382097;32;33699;-85
2021/05/18 05:32:28;;;;;;;0.80;0.25;;;;;;;15.71;55.47;99081.84;4398430;32;33261;-85
2021/05/18 05:34:55;;;;;;;0.68;0.25;;;;;;;15.58;55.59;99087.25;4401444;32;33803;-85
2021/05/18 05:37:24;;;;;;;0.62;0.30;;;;;;;15.66;54.65;99095.50;4375494;32;35225;-85
2021/05/18 05:39:53;;;;;;;0.65;0.20;;;;;;;15.27;56.25;99096.66;4390375;32;34180;-85
2021/05/18 05:42:21;;;;;;;0.80;0.37;;;;;;;15.50;55.62;99095.78;4389764;32;33924;-85
2021/05/18 05:44:49;;;;;;;0.47;0.30;;;;;;;15.77;55.78;99092.91;4385728;32;34128;-86
2021/05/18 05:47:18;;;;;;;0.85;0.10;;;;;;;15.84;55.86;99082.62;4401348;32;33713;-88
2021/05/18 05:49:46;;;;;;;2.28;0.30;;;;;;;16.15;54.39;99085.59;4389273;32;33293;-87
2021/05/18 05:52:22;;;;;;;1.48;0.30;;;;;;;16.20;53.17;99086.06;4377714;32;33440;-87
2021/05/18 05:54:51;;;;;;;2.90;0.22;;;;;;;16.18;53.69;99101.31;4389240;32;35509;-87
2021/05/18 05:57:19;;;;;;;1.65;0.20;;;;;;;16.48;52.79;99092.75;4390129;32;35241;-87
2021/05/18 05:59:48;;;;;;;2.72;0.40;;;;;;;16.54;53.90;99101.09;4377281;32;34735;-87
2021/05/18 06:02:16;;;;;;;1.37;0.20;;;;;;;16.60;53.51;99097.94;4402559;32;32921;-87
2021/05/18 06:04:44;;;;;;;1.58;0.43;;;;;;;16.76;52.93;99086.06;4402237;32;33586;-87
2021/05/18 06:07:11;;;;;;;0.45;0.30;;;;;;;16.70;52.80;99086.53;4390153;32;33716;-89
2021/05/18 06:43:07;;;;;;;0.22;0.10;;;;;;;17.28;51.07;99154.72;4384114;32;35194;-87
2021/05/18 06:48:22;;;;;;;0.32;0.13;;;;;;;17.27;50.60;99170.84;4378918;32;34132;-88
2021/05/18 06:50:50;;;;;;;6.00;0.68;;;;;;;17.07;51.43;99167.97;4382236;32;32718;-87
2021/05/18 06:53:18;;;;;;;1.85;0.22;;;;;;;17.22;51.99;99173.03;4385657;32;33470;-88
2021/05/18 06:55:48;;;;;;;1.77;0.20;;;;;;;17.14;51.25;99171.00;4384501;32;33614;-87
2021/05/18 06:58:34;;;;;;;0.20;0.20;;;;;;;17.13;51.82;99175.47;4385034;32;34289;-88
2021/05/18 07:01:03;;;;;;;0.43;0.20;;;;;;;17.05;50.95;99188.59;4383723;32;34164;-88
2021/05/18 07:03:36;;;;;;;0.28;0.20;;;;;;;17.22;50.80;99187.22;4382569;32;34580;-88
2021/05/18 07:06:59;;;;;;;0.93;0.20;;;;;;;17.53;50.29;99190.06;4385840;32;34080;-88
2021/05/18 07:08:54;;;;;;;0.85;0.20;;;;;;;17.36;49.96;99191.44;4381963;32;35119;-88
2021/05/18 07:11:24;;;;;;;1.62;0.30;;;;;;;17.35;50.46;99189.75;4384276;32;35787;-87
2021/05/18 07:13:52;;;;;;;0.32;0.28;;;;;;;17.27;50.61;99198.38;4381657;32;32962;-87
2021/05/18 07:16:21;;;;;;;3.25;0.20;;;;;;;17.11;51.08;99182.75;4385451;32;33564;-86
2021/05/18 07:18:50;;;;;;;0.90;0.20;;;;;;;17.44;50.29;99196.16;4385734;32;33991;-87
2021/05/18 07:21:19;;;;;;;3.50;0.37;;;;;;;17.57;51.46;99196.88;4395675;32;33081;-87
2021/05/18 07:23:48;;;;;;;0.70;0.15;;;;;;;17.61;49.97;99201.81;4384004;32;33433;-87
2021/05/18 07:26:16;;;;;;;1.08;0.20;;;;;;;17.67;50.36;99201.31;4384829;32;34733;-87
2021/05/18 07:28:44;;;;;;;2.15;0.40;;;;;;;17.40;50.24;99198.22;4383090;32;32816;-88
2021/05/18 07:31:12;;;;;;;3.47;0.28;;;;;;;17.30;50.42;99198.13;4394161;32;33174;-86
2021/05/18 07:33:41;;;;;;;0.73;0.52;;;;;;;17.18;51.96;99206.25;4386897;32;34692;-86
2021/05/18 07:36:09;;;;;;;0.70;0.20;;;;;;;17.52;51.34;99201.69;4387173;32;35631;-86
2021/05/18 07:38:42;;;;;;;0.55;0.20;;;;;;;17.44;49.41;99201.50;4387711;32;33157;-86
2021/05/18 07:41:10;;;;;;;3.45;0.30;;;;;;;17.78;50.01;99202.28;4387688;32;33848;-86
2021/05/18 07:43:38;;;;;;;1.52;0.30;;;;;;;17.86;47.68;99191.81;4387753;32;33189;-86
2021/05/18 07:46:12;;;;;;;3.87;0.30;;;;;;;17.76;48.75;99199.75;4397836;32;34471;-86
2021/05/18 07:49:09;;;;;;;0.60;0.30;;;;;;;17.71;48.48;99199.25;4388195;32;34303;-86
2021/05/18 08:05:31;;;;;;;4.20;0.30;;;;;;;18.31;48.16;99219.12;4388806;32;33630;-86
2021/05/18 08:07:59;;;;;;;2.58;0.37;;;;;;;18.37;47.82;99217.75;4388906;32;33503;-86
2021/05/18 08:12:59;;;;;;;1.80;0.30;;;;;;;18.82;46.98;99209.47;4377986;32;33657;-86
2021/05/18 08:15:47;;;;;;;1.02;0.20;;;;;;;18.85;47.07;99219.91;4387417;32;33751;-86
2021/05/18 10:38:43;;;;;;;1.40;0.50;;;;;;;19.76;45.02;99271.66;4386122;32;34110;-84
2021/05/18 10:41:27;;;;;;;3.10;0.60;;;;;;;19.80;43.15;99260.53;4399750;32;33500;-84
2021/05/18 10:43:59;;;;;;;0.57;0.30;;;;;;;19.38;42.34;99273.22;4370980;32;32626;-84
2021/05/18 10:46:31;;;;;;;5.28;0.50;;;;;;;19.41;43.71;99275.59;4388476;32;33047;-85
2021/05/18 10:49:04;;;;;;;0.62;0.30;;;;;;;19.43;43.25;99279.03;4388342;32;33211;-85
2021/05/18 10:51:54;;;;;;;1.55;0.40;;;;;;;19.80;42.72;99287.31;4387738;32;34589;-85
2021/05/18 10:54:29;;;;;;;1.50;0.50;;;;;;;19.45;44.92;99293.09;4388350;32;34824;-85
2021/05/18 10:57:09;;;;;;;4.82;0.70;;;;;;;19.05;46.72;99280.56;4378686;32;33816;-85
2021/05/18 10:59:50;;;;;;;2.40;0.82;;;;;;;19.37;47.01;99306.31;4381429;32;33623;-84
2021/05/18 11:02:22;;;;;;;2.30;0.70;;;;;;;18.37;51.65;99324.66;4395101;32;33676;-85
2021/05/18 11:04:50;;;;;;;3.50;1.27;;;;;;;17.85;54.08;99337.84;4400582;32;33369;-84
2021/05/18 11:07:40;;;;;;;3.45;0.80;;;;;;;17.36;56.35;99335.53;4387378;32;32849;-84
2021/05/18 11:10:14;;;;;;;5.32;1.02;;;;;;;16.84;59.34;99334.28;4365682;32;33431;-85
2021/05/18 11:12:45;;;;;;;1.42;0.80;;;;;;;16.96;59.36;99336.00;4386459;32;35065;-84
2021/05/18 11:15:15;;;;;;;1.42;0.55;;;;;;;16.70;59.41;99337.13;4381599;32;33377;-84
2021/05/18 11:17:46;;;;;;;2.10;0.77;;;;;;;16.68;59.24;99329.25;4378208;32;35118;-84
2021/05/18 11:26:08;;;;;;;1.85;0.55;;;;;;;17.41;53.93;99309.34;4380341;32;33479;-85
2021/05/18 11:28:48;;;;;;;0.60;0.35;;;;;;;17.87;51.52;99297.66;4394011;32;32864;-85
2021/05/18 11:31:25;;;;;;;0.88;0.40;;;;;;;17.85;51.06;99294.25;4397625;32;33597;-84
2021/05/18 11:33:56;;;;;;;3.33;0.45;;;;;;;17.77;51.90;99299.37;4383408;32;33982;-85
2021/05/18 11:36:29;;;;;;;2.00;0.60;;;;;;;18.14;50.41;99299.87;4383175;32;33625;-85
2021/05/18 11:39:11;;;;;;;1.48;0.40;;;;;;;18.35;49.60;99302.59;4381905;32;32811;-85
2021/05/18 11:41:42;;;;;;;1.92;0.50;;;;;;;18.30;49.85;99305.63;4383060;32;33678;-85
2021/05/18 11:44:12;;;;;;;0.65;0.40;;;;;;;18.13;49.69;99299.00;4381609;32;34196;-85
2021/05/18 11:46:48;;;;;;;1.12;0.52;;;;;;;18.30;49.93;99315.47;4382786;32;33733;-84
2021/05/18 11:49:18;;;;;;;3.08;0.80;;;;;;;18.19;51.47;99303.03;4370637;32;33344;-85
2021/05/18 11:51:48;;;;;;;0.80;0.40;;;;;;;18.05;50.75;99306.84;4381630;32;33130;-84
2021/05/18 11:54:37;;;;;;;2.80;0.52;;;;;;;18.42;50.91;99309.13;4372136;32;32987;-84
2021/05/18 11:57:05;;;;;;;1.95;0.80;;;;;;;18.65;49.69;99299.97;4381595;32;34772;-85
2021/05/18 11:59:37;;;;;;;1.12;0.90;;;;;;;18.60;50.02;99296.84;4382386;32;35506;-85
2021/05/18 12:02:06;;;;;;;1.75;0.40;;;;;;;19.01;50.33;99292.50;4370373;32;33437;-85
2021/05/18 12:04:47;;;;;;;2.65;0.52;;;;;;;18.97;49.79;99303.59;4381431;32;34282;-84
2021/05/18 12:07:16;;;;;;;3.12;1.25;;;;;;;19.21;49.02;99292.59;4372603;32;33251;-85
2021/05/18 12:09:48;;;;;;;2.12;0.90;;;;;;;19.29;49.00;99290.09;4383383;32;33939;-84
2021/05/18 12:12:18;;;;;;;1.25;0.88;;;;;;;18.95;48.49;99279.66;4382717;32;34442;-85
2021/05/18 12:14:50;;;;;;;2.50;0.80;;;;;;;18.97;50.48;99277.69;4382946;32;34562;-85
2021/05/18 12:17:24;;;;;;;3.67;0.77;;;;;;;19.22;50.15;99278.22;4387008;32;32775;-84
2021/05/18 12:19:53;;;;;;;2.05;1.27;;;;;;;19.50;50.21;99290.00;4387395;32;32898;-84
2021/05/18 12:22:21;;;;;;;1.30;1.00;;;;;;;19.80;48.63;99276.59;4387282;32;34119;-84
2021/05/18 12:24:50;;;;;;;2.53;0.93;;;;;;;19.86;51.84;99278.72;4375126;32;33893;-84
2021/05/18 12:27:18;;;;;;;2.25;0.77;;;;;;;20.08;48.44;99272.28;4387216;32;33179;-83
2021/05/18 12:29:51;;;;;;;1.17;1.08;;;;;;;20.47;48.03;99269.59;4399895;32;32881;-84
2021/05/18 12:32:31;;;;;;;2.58;0.88;;;;;;;20.55;47.00;99264.34;4399626;32;35584;-85
2021/05/18 12:35:05;;;;;;;4.35;0.82;;;;;;;20.57;47.80;99259.72;4375212;32;33720;-84
2021/05/18 12:37:37;;;;;;;1.33;0.60;;;;;;;20.75;47.81;99257.13;4376753;32;33846;-84
2021/05/18 12:40:30;;;;;;;1.45;0.77;;;;;;;20.93;47.09;99265.25;4389551;32;35447;-84
2021/05/18 12:43:12;;;;;;;1.10;0.95;;;;;;;21.02;48.43;99264.38;4389458;32;34334;-84
2021/05/18 12:45:41;;;;;;;2.85;0.95;;;;;;;20.94;45.02;99261.59;4378276;32;35367;-84
2021/05/18 12:48:12;;;;;;;4.62;1.00;;;;;;;20.83;44.90;99270.66;4389619;32;34183;-84
2021/05/18 12:50:50;;;;;;;2.25;0.50;;;;;;;20.96;45.54;99271.19;4389093;32;33180;-85
2021/05/18 12:53:25;;;;;;;3.85;1.40;;;;;;;21.38;44.81;99265.41;4382924;32;32384;-84
2021/05/18 12:55:54;;;;;;;1.62;0.98;;;;;;;20.52;47.34;99272.69;4370456;32;34307;-84
2021/05/18 12:58:30;;;;;;;10.68;6.37;;;;;;;20.90;43.63;99278.97;4393265;32;33993;-85
2021/05/18 13:01:05;;;;;;;0.60;0.60;;;;;;;20.60;45.20;99269.28;4394276;32;33619;-84
2021/05/18 13:03:34;;;;;;;0.70;0.50;;;;;;;20.56;43.10;99273.28;4377888;32;33344;-84
2021/05/18 13:06:02;;;;;;;5.30;2.20;;;;;;;20.55;42.97;99287.66;4388249;32;33177;-84
2021/05/18 13:08:31;;;;;;;0.50;0.50;;;;;;;20.05;43.69;99283.25;4385388;32;33328;-84
2021/05/18 13:11:14;;;;;;;2.12;0.60;;;;;;;20.56;42.39;99271.44;4386480;32;31801;-88
2021/05/18 13:13:42;;;;;;;2.70;0.30;;;;;;;20.16;44.45;99279.59;4386177;32;33672;-88
2021/05/18 13:16:11;;;;;;;3.47;0.62;;;;;;;20.59;43.24;99270.28;4389147;32;33617;-93
2021/05/18 13:19:06;;;;;;;1.67;0.68;;;;;;;21.22;42.45;99271.38;4388520;32;33644;-89
2021/05/18 13:21:50;;;;;;;0.73;0.32;;;;;;;20.97;40.94;99272.03;4386401;32;34004;-89
2021/05/18 13:24:27;;;;;;;2.53;0.75;;;;;;;20.51;40.60;99276.37;4384405;32;34565;-87
2021/05/18 13:26:57;;;;;;;0.57;0.40;;;;;;;21.01;42.08;99273.44;4383995;32;35179;-87
2021/05/18 13:29:25;;;;;;;2.33;0.50;;;;;;;21.50;38.97;99279.47;4396242;32;33626;-87
2021/05/18 13:31:55;;;;;;;1.12;0.55;;;;;;;21.46;38.72;99275.41;4384794;32;33061;-87
2021/05/18 13:34:41;;;;;;;2.78;0.60;;;;;;;21.75;37.08;99266.34;4383101;32;34172;-88
2021/05/18 13:37:10;;;;;;;3.33;0.40;;;;;;;21.56;36.43;99273.50;4401024;32;34891;-88
2021/05/18 13:39:39;;;;;;;2.03;0.57;;;;;;;21.70;37.72;99278.38;4388624;32;33734;-87
2021/05/18 13:42:07;;;;;;;0.98;0.37;;;;;;;21.60;36.85;99268.66;4388626;32;33389;-87
2021/05/18 13:44:38;;;;;;;0.80;0.50;;;;;;;21.88;36.95;99258.72;4388489;32;34239;-89
2021/05/18 13:47:07;;;;;;;0.88;0.40;;;;;;;21.96;36.52;99258.81;4384945;32;34270;-88
2021/05/18 13:49:35;;;;;;;3.08;0.62;;;;;;;22.01;36.67;99261.06;4392303;32;35165;-89
2021/05/18 13:52:21;;;;;;;1.25;0.40;;;;;;;21.91;37.02;99263.81;4382116;32;34972;-89
2021/05/18 13:54:50;;;;;;;1.90;0.45;;;;;;;22.31;36.82;99262.53;4400548;32;33627;-88
2021/05/18 13:57:18;;;;;;;0.73;0.20;;;;;;;22.42;35.87;99273.06;4375524;32;33349;-88
2021/05/18 13:59:48;;;;;;;2.55;0.50;;;;;;;21.91;34.04;99272.72;4400712;32;34926;-88
2021/05/18 14:02:17;;;;;;;0.30;0.30;;;;;;;22.11;34.27;99268.06;4388378;32;33204;-88
2021/05/18 14:04:45;;;;;;;0.77;0.30;;;;;;;22.39;34.87;99276.91;4384811;32;33633;-88
2021/05/18 14:08:22;;;;;;;4.57;0.50;;;;;;;22.02;34.96;99263.56;4387770;32;34352;-89
2021/05/18 14:11:07;;;;;;;2.25;0.52;;;;;;;22.28;32.81;99262.84;4380086;32;34975;-88
2021/05/18 14:13:37;;;;;;;2.35;0.40;;;;;;;22.02;34.06;99268.94;4376279;32;32117;-88
2021/05/18 14:16:06;;;;;;;0.28;0.20;;;;;;;21.82;34.39;99264.72;4385364;32;33576;-90
2021/05/18 14:18:38;;;;;;;1.30;0.40;;;;;;;22.16;33.23;99260.38;4397133;32;32457;-92
2021/05/18 14:21:14;;;;;;;0.45;0.30;;;;;;;22.35;33.77;99269.28;4375576;32;33042;-91
2021/05/18 14:26:17;;;;;;;1.87;0.25;;;;;;;21.74;34.56;99265.47;4386228;32;34563;-91
2021/05/18 14:28:45;;;;;;;0.70;0.50;;;;;;;21.99;33.91;99261.22;4386077;32;33120;-91
2021/05/18 14:31:14;;;;;;;1.00;0.57;;;;;;;21.95;34.65;99262.50;4386273;32;34616;-91
2021/05/18 14:33:43;;;;;;;2.05;0.65;;;;;;;21.89;33.74;99265.81;4385889;32;33734;-91
2021/05/18 14:36:12;;;;;;;0.60;0.25;;;;;;;22.14;34.18;99266.94;4383721;32;34526;-90
2021/05/18 14:39:03;;;;;;;0.52;0.28;;;;;;;21.63;37.21;99268.38;4384216;32;33743;-91
2021/05/18 14:44:23;;;;;;;1.65;0.43;;;;;;;21.80;35.29;99264.03;4380160;32;34336;-91
2021/05/18 14:47:09;;;;;;;0.60;0.40;;;;;;;21.17;36.59;99262.94;4385556;32;33736;-90
2021/05/18 14:55:21;;;;;;;1.62;0.55;;;;;;;21.91;35.80;99263.81;4386323;32;33740;-91
2021/05/18 14:57:49;;;;;;;1.15;0.40;;;;;;;21.82;35.48;99264.72;4394984;32;33404;-90
2021/05/18 15:00:18;;;;;;;2.05;0.40;;;;;;;21.21;36.87;99268.81;4385801;32;35524;-90
2021/05/18 15:02:47;;;;;;;0.65;0.40;;;;;;;21.54;36.71;99271.97;4398381;32;33422;-90
2021/05/18 15:05:16;;;;;;;2.72;0.60;;;;;;;21.68;36.82;99285.72;4397985;32;34279;-91
2021/05/18 15:07:45;;;;;;;2.20;0.50;;;;;;;21.80;35.76;99282.84;4382894;32;32838;-91
2021/05/18 15:10:12;;;;;;;3.55;0.70;;;;;;;21.15;37.73;99291.75;4383665;32;33901;-91
2021/05/18 15:12:42;;;;;;;4.32;0.50;;;;;;;21.08;39.04;99285.28;4383287;32;35956;-90
2021/05/18 15:15:11;;;;;;;0.77;0.50;;;;;;;21.33;39.57;99291.00;4370891;32;34052;-90
2021/05/18 15:17:39;;;;;;;1.87;0.77;;;;;;;20.68;42.38;99305.13;4385882;32;33488;-91
2021/05/18 15:20:08;;;;;;;3.45;0.60;;;;;;;20.93;41.00;99292.94;4396546;32;34788;-91
2021/05/18 15:22:38;;;;;;;1.35;0.90;;;;;;;21.17;39.95;99294.28;4397692;32;33078;-91
2021/05/18 15:25:07;;;;;;;3.05;0.73;;;;;;;21.19;40.77;99306.56;4396231;32;33685;-85
2021/05/18 15:27:36;;;;;;;4.97;0.77;;;;;;;20.98;41.60;99311.28;4369881;32;34268;-89
2021/05/18 15:30:05;;;;;;;1.40;0.90;;;;;;;20.86;41.82;99312.47;4384521;32;33791;-89
2021/05/18 15:32:36;;;;;;;2.60;0.90;;;;;;;20.35;43.54;99321.66;4397795;32;34063;-88
2021/05/18 15:35:06;;;;;;;1.00;0.62;;;;;;;20.23;43.71;99317.41;4367218;32;32477;-88
2021/05/18 15:37:35;;;;;;;2.47;0.80;;;;;;;20.23;43.66;99325.47;4388192;32;32905;-88
2021/05/18 15:40:04;;;;;;;3.17;0.80;;;;;;;20.24;42.72;99316.44;4387823;32;33659;-87
2021/05/18 15:42:32;;;;;;;2.08;0.62;;;;;;;20.13;43.83;99318.25;4375050;32;34191;-88
2021/05/18 15:44:59;;;;;;;2.30;0.70;;;;;;;20.02;44.06;99310.31;4399260;32;35148;-87
2021/05/18 15:47:27;;;;;;;2.05;0.62;;;;;;;20.39;41.59;99298.94;4370450;32;34897;-88
2021/05/18 15:49:56;;;;;;;0.60;0.40;;;;;;;20.00;42.51;99315.00;4385405;32;33262;-86
2021/05/18 15:52:24;;;;;;;1.42;0.50;;;;;;;20.09;41.24;99310.62;4371431;32;33112;-88
2021/05/18 15:54:52;;;;;;;2.05;0.68;;;;;;;19.55;43.98;99315.41;4387413;32;33231;-87
2021/05/18 15:57:19;;;;;;;1.60;0.40;;;;;;;19.94;42.00;99300.31;4387315;32;33484;-88
2021/05/18 15:59:49;;;;;;;1.70;0.50;;;;;;;20.12;42.32;99303.12;4386171;32;33603;-88
2021/05/18 16:02:18;;;;;;;2.33;0.62;;;;;;;20.09;42.87;99306.13;4384755;32;34508;-88
2021/05/18 16:04:47;;;;;;;1.35;0.45;;;;;;;19.98;44.08;99311.59;4386173;32;32851;-92
2021/05/18 16:07:29;;;;;;;0.82;0.50;;;;;;;19.94;43.32;99312.88;4358378;32;34127;-92
2021/05/18 16:10:09;;;;;;;1.87;0.75;;;;;;;20.15;42.92;99318.13;4359323;32;33759;-90
2021/05/18 16:12:56;;;;;;;1.60;0.70;;;;;;;19.97;44.00;99325.97;4373482;32;33984;-91
2021/05/18 16:15:38;;;;;;;3.78;0.82;;;;;;;19.97;45.50;99323.28;4384058;32;34010;-91
2021/05/18 16:18:49;;;;;;;0.45;0.45;;;;;;;20.17;44.16;99327.69;4378321;32;31732;-91
2021/05/18 16:21:43;;;;;;;1.80;0.80;;;;;;;19.91;44.39;99324.69;4382809;32;34617;-91
2021/05/18 16:24:25;;;;;;;1.67;0.80;;;;;;;20.05;44.49;99330.66;4385391;32;34456;-91
2021/05/18 16:26:53;;;;;;;1.83;1.02;;;;;;;19.70;45.73;99329.28;4362059;32;33656;-91
2021/05/18 16:29:22;;;;;;;3.85;0.57;;;;;;;20.28;44.16;99315.16;4374514;32;34642;-90
2021/05/18 16:32:11;;;;;;;1.92;0.80;;;;;;;20.16;45.30;99319.78;4374596;32;34824;-90
2021/05/18 16:34:39;;;;;;;0.95;0.60;;;;;;;20.24;45.05;99321.78;4374570;32;34405;-91
2021/05/18 16:37:09;;;;;;;4.12;0.73;;;;;;;20.40;44.59;99322.91;4373742;32;34181;-91
2021/05/18 16:39:54;;;;;;;3.30;0.50;;;;;;;20.25;44.89;99316.28;4369996;32;33425;-92
2021/05/18 16:42:37;;;;;;;1.90;0.90;;;;;;;20.49;44.89;99321.25;4352667;32;34302;-91
2021/05/18 16:45:19;;;;;;;4.00;0.93;;;;;;;20.53;44.68;99328.03;4348616;32;34166;-91
2021/05/18 16:48:27;;;;;;;1.37;0.90;;;;;;;20.49;45.14;99321.25;4341914;32;32914;-91
2021/05/18 16:50:57;;;;;;;1.05;0.70;;;;;;;20.36;45.80;99320.66;4340600;32;34064;-91
2021/05/18 16:53:31;;;;;;;2.75;0.80;;;;;;;20.16;46.41;99323.31;4342637;33;34337;-91
2021/05/18 16:56:00;;;;;;;1.23;0.82;;;;;;;20.08;46.84;99325.88;4345912;32;33967;-91
2021/05/18 16:58:36;;;;;;;1.23;0.65;;;;;;;20.27;45.63;99324.16;4334059;33;33967;-91
2021/05/18 17:01:04;;;;;;;0.93;0.75;;;;;;;20.09;47.04;99324.88;4346662;32;32819;-91
2021/05/18 17:03:55;;;;;;;1.70;0.82;;;;;;;19.98;47.98;99335.69;4345203;32;35243;-91
2021/05/18 17:06:39;;;;;;;3.42;0.90;;;;;;;19.84;47.84;99336.09;4363880;32;33501;-91
2021/05/18 17:09:17;;;;;;;1.00;0.70;;;;;;;19.90;48.09;99340.94;4374763;32;34268;-90
2021/05/18 17:12:04;;;;;;;2.35;0.70;;;;;;;20.11;46.79;99333.62;4383621;32;33845;-92
2021/05/18 17:15:10;;;;;;;2.40;0.77;;;;;;;20.25;45.91;99339.56;4377249;32;33331;-90
2021/05/18 17:17:58;;;;;;;3.47;1.02;;;;;;;20.40;45.50;99343.50;4361878;32;34526;-90
2021/05/18 17:20:32;;;;;;;2.67;1.10;;;;;;;20.26;46.87;99339.41;4361558;32;34000;-90